01:59
Airports
History
Links
Donate
Help keep this website running!
PayPal
Bitcoin
This page is community maintained. The information is intended for PC simulator navigation or reference.
Always use approved charts for navigation.
AZ99
Checkerboard
Checkerboard (AZ99)
Somerton, Arizona, United States (85350)
4
Lat/Lng:32° 32' 43.69" N / 114° 38' 11.33" W
32.545469 / -114.636481
Elevation:193'ft / 59mMSL
ID / ICAO:AZ99
Runways:1
Longest:08-26
Dirt 789m / 2,587ft
Nearby Weather00:57 GMT 2017-12-11
Nearby weather at KNYL, Yuma Mcas/yuma Intl located 7.9 nautical miles from AZ99
Altimeter: 30.13
Visibility: 10.0 statute miles
Wind: 6 knots (from 360°)
Temp: 21°c / 70°f
Humidity: 12.4%

METAR: KNYL 110057Z AUTO 36006KT 10SM CLR 21/M09 A3013 RMK AO2 SLP202 T02061089 $

(Powered by phpweather)
Nearby VORs <50NM
Nearby NDBs
Runway 08 / 26
Dimensions:788.6 x 18.3m 2587' x 60'ft
Surface:Dirt
Runway 08 [A]Runway 26 [B]
Heading:092°TH 272°TH
Lat:
Lng:
32° 32' 44.36"N
114° 38' 26.54"W
32° 32' 43.02"N
114° 37' 56.12"W
User Notes and Comments
32° 32' 43.69" N / 114° 38' 11.33" W
Distance To
Airport ID:
Nearby Airports
(U) Rolle Airfield 4.1 NM
44A WSW 240°
4 Somerton 4.2 NM
P49 NNW 335°
(C) Yuma Mcas/yuma Intl 7.9 NM
KNYL ( WX ) NNE 13°
(U) SAN LUIS RIO COLORADO 11.7 NM
MM76 SW 233°
(R) Laguna Aaf (yuma Proving Groun 26.2 NM
KLGF NNE 32°
(C) GENERAL RODOLFO SANCHEZ TABOADA INTL 35.8 NM
MMML ( WX ) W 279°
(U) Holtville 42.2 NM
L04 WNW 299°
VFR Chart
Flight Planning at SkyVector.com